createdAt,value
2018-12-08T08:03:35.910Z,24.00
2018-12-08T08:08:41.637Z,19.13
2018-12-08T08:13:48.490Z,29.72
2018-12-08T08:18:54.006Z,19.77
2018-12-08T08:23:59.108Z,18.63
2018-12-08T08:29:04.738Z,23.27
2018-12-08T08:34:10.146Z,32.30
2018-12-08T08:39:16.178Z,21.53
2018-12-08T08:44:21.352Z,27.13
2018-12-08T08:49:26.174Z,21.83
2018-12-08T08:54:31.425Z,22.50
2018-12-08T08:59:39.080Z,22.97
2018-12-08T09:04:44.058Z,24.47
2018-12-08T09:09:48.967Z,23.30
2018-12-08T09:14:53.862Z,28.83
2018-12-08T09:19:58.691Z,22.00
2018-12-08T09:25:03.788Z,25.50
2018-12-08T09:30:10.608Z,27.07
2018-12-08T09:35:16.622Z,22.53
2018-12-08T09:40:21.643Z,22.87
2018-12-08T09:45:26.618Z,29.67
2018-12-08T09:50:31.630Z,20.57
2018-12-08T09:55:36.463Z,19.47
2018-12-08T10:00:41.528Z,24.53
2018-12-08T10:05:46.362Z,19.70
2018-12-08T10:10:51.178Z,15.77
2018-12-08T10:15:56.110Z,20.07
2018-12-08T10:21:00.967Z,18.40
2018-12-08T10:26:05.786Z,16.97
2018-12-08T10:31:10.661Z,19.97
2018-12-08T10:36:15.634Z,28.43
2018-12-08T10:41:20.662Z,24.77
2018-12-08T10:46:25.542Z,19.63
2018-12-08T10:51:30.351Z,25.67
2018-12-08T10:56:37.294Z,22.47
2018-12-08T11:01:47.527Z,23.40
2018-12-08T11:06:52.462Z,16.97
2018-12-08T11:11:57.658Z,16.07
2018-12-08T11:17:02.464Z,24.50
2018-12-08T11:22:07.613Z,17.47
2018-12-08T11:27:12.474Z,25.67
2018-12-08T11:32:17.319Z,16.40
2018-12-08T11:37:22.200Z,13.47
2018-12-08T11:42:27.099Z,19.43
2018-12-08T11:47:31.956Z,15.67
2018-12-08T11:52:37.313Z,18.23
2018-12-08T11:57:42.208Z,19.43
2018-12-08T12:02:47.155Z,20.57
2018-12-08T12:07:52.154Z,23.30
2018-12-08T12:12:57.419Z,13.33
2018-12-08T12:18:02.274Z,14.53
2018-12-08T12:23:07.185Z,19.70
2018-12-08T12:28:12.127Z,21.30
2018-12-08T12:33:17.078Z,23.83
2018-12-08T12:38:22.130Z,21.73
2018-12-08T12:43:27.346Z,18.73
2018-12-08T12:48:32.245Z,16.47
2018-12-08T12:53:37.093Z,20.03
2018-12-08T12:58:42.090Z,17.97
2018-12-08T13:03:46.882Z,17.40
2018-12-08T13:08:53.375Z,20.77
2018-12-08T13:13:58.523Z,16.87
2018-12-08T13:19:03.420Z,18.57
2018-12-08T13:24:08.274Z,16.50
2018-12-08T13:29:13.187Z,18.47
2018-12-08T13:34:33.289Z,16.30
2018-12-08T13:39:38.366Z,17.87
2018-12-08T13:44:43.468Z,19.37
2018-12-08T13:49:48.426Z,18.37
2018-12-08T13:54:53.395Z,16.70
2018-12-08T13:59:58.391Z,14.73
2018-12-08T14:05:03.835Z,19.17
2018-12-08T14:10:08.958Z,19.80
2018-12-08T14:15:14.210Z,19.77
2018-12-08T14:20:24.037Z,22.30
2018-12-08T14:25:28.875Z,24.80
2018-12-08T14:30:33.689Z,29.30
2018-12-08T14:35:38.783Z,22.67
2018-12-08T14:40:43.658Z,29.30
2018-12-08T14:45:48.609Z,26.90
2018-12-08T14:50:53.527Z,33.43
2018-12-08T14:55:58.314Z,28.73
2018-12-08T15:01:03.234Z,25.97
2018-12-08T15:06:08.042Z,27.40
2018-12-08T15:11:13.462Z,27.20
2018-12-08T15:16:18.536Z,26.43
2018-12-08T15:21:23.858Z,32.07
2018-12-08T15:26:28.809Z,26.57
2018-12-08T15:31:33.643Z,29.03
2018-12-08T15:36:38.562Z,28.27
2018-12-08T15:41:43.635Z,17.33
2018-12-08T15:46:48.534Z,23.97
2018-12-08T15:51:57.162Z,24.53
2018-12-08T15:57:02.022Z,24.13
2018-12-08T16:02:07.098Z,30.77
2018-12-08T16:07:12.100Z,28.27
2018-12-08T16:12:16.920Z,23.97
2018-12-08T16:17:21.787Z,24.30
2018-12-08T16:22:27.008Z,25.77
2018-12-08T16:27:32.018Z,22.83
2018-12-08T16:32:37.425Z,19.93
2018-12-08T16:37:42.393Z,25.47
2018-12-08T16:42:47.262Z,28.43
2018-12-08T16:47:52.067Z,31.87
2018-12-08T16:52:57.199Z,27.93
2018-12-08T16:58:02.121Z,28.00
2018-12-08T17:03:07.061Z,23.87
2018-12-08T17:08:11.949Z,23.30
2018-12-08T17:13:16.795Z,24.60
2018-12-08T17:18:21.573Z,20.73
2018-12-08T17:23:27.013Z,19.67
2018-12-08T17:28:31.962Z,14.27
2018-12-08T17:33:36.779Z,11.13
2018-12-08T17:38:41.749Z,14.00
2018-12-08T17:43:46.741Z,11.10
2018-12-08T17:48:51.697Z,10.47
2018-12-08T17:53:56.604Z,7.50
2018-12-08T17:59:01.455Z,7.10
2018-12-08T18:04:06.464Z,6.33
2018-12-08T18:09:11.634Z,6.40
2018-12-08T18:14:16.533Z,8.00
2018-12-08T18:19:21.387Z,7.10
2018-12-08T18:24:26.272Z,5.70
2018-12-08T18:29:31.270Z,6.00
2018-12-08T18:34:36.165Z,6.20
2018-12-08T18:39:42.089Z,3.60
2018-12-08T18:44:47.021Z,5.77
2018-12-08T18:49:51.924Z,5.80
2018-12-08T18:54:56.762Z,5.93
2018-12-08T19:00:01.582Z,3.40
2018-12-08T19:05:08.456Z,5.47
2018-12-08T19:10:13.625Z,6.60
2018-12-08T19:15:18.579Z,6.27
2018-12-08T19:20:23.484Z,11.67
2018-12-08T19:25:28.364Z,12.83
2018-12-08T19:30:33.279Z,9.83
2018-12-08T19:35:38.191Z,12.53
2018-12-08T19:40:43.127Z,10.50
2018-12-08T19:45:48.014Z,16.43
2018-12-08T19:50:52.970Z,15.50
2018-12-08T19:55:57.854Z,18.43
2018-12-08T20:01:02.810Z,15.57
2018-12-08T20:06:08.990Z,21.00
2018-12-08T20:11:13.929Z,21.73
2018-12-08T20:16:18.893Z,25.53
2018-12-08T20:21:24.033Z,20.87
2018-12-08T20:26:28.815Z,20.60
2018-12-08T20:31:33.722Z,21.40
2018-12-08T20:36:38.567Z,23.43
2018-12-08T20:41:43.366Z,25.23
2018-12-08T20:46:48.234Z,29.83
2018-12-08T20:51:53.098Z,23.00
2018-12-08T20:56:58.155Z,31.20
2018-12-08T21:02:02.950Z,32.50
2018-12-08T21:07:08.793Z,34.33
2018-12-08T21:12:13.823Z,39.17
2018-12-08T21:17:18.857Z,28.93
2018-12-08T21:22:23.824Z,27.60
2018-12-08T21:27:28.686Z,13.70
2018-12-08T21:32:33.600Z,14.03
2018-12-08T21:37:38.875Z,17.60
2018-12-08T21:42:44.868Z,22.30
2018-12-08T21:47:50.231Z,23.87
2018-12-08T21:52:55.211Z,31.37
2018-12-08T21:58:00.739Z,39.73
2018-12-08T22:03:05.695Z,42.47
2018-12-08T22:08:10.470Z,41.87
2018-12-08T22:13:15.421Z,30.13
2018-12-08T22:18:20.244Z,39.00
2018-12-08T22:23:25.199Z,33.95
2018-12-08T22:28:30.096Z,38.40
2018-12-08T22:33:34.999Z,28.90
2018-12-08T22:38:39.947Z,24.83
2018-12-08T22:43:44.813Z,29.80
2018-12-08T22:48:49.758Z,25.20
2018-12-08T22:53:54.557Z,25.20
2018-12-08T22:58:59.537Z,30.87
2018-12-08T23:04:04.630Z,21.23
2018-12-08T23:09:10.627Z,22.20
2018-12-08T23:14:17.451Z,20.17
2018-12-08T23:19:22.521Z,20.50
2018-12-08T23:24:27.394Z,20.77
2018-12-08T23:29:32.419Z,21.50
2018-12-08T23:34:37.988Z,17.87
2018-12-08T23:39:42.951Z,19.47
2018-12-08T23:44:47.980Z,16.47
2018-12-08T23:49:52.934Z,21.67
2018-12-08T23:54:57.765Z,21.63
